Strona główna
METAR-TAF:

METAR-TAF

Lotnisko :

Port lotniczy Sliač

Bańska Bystrzyca, Słowacja

Szerokość geograficzna: 48-38-17N, Długość geograficzna: 019-08-03E, wysokość: 318 m

Aktualna obserwacja pogody

Raport powstał 4 godziny i 45 minut temu, godzina 20:15 UTC
Wiatr 2 kt z kierunków zmiennych
Temperatura 11°C
Wilgotność 100%
Ciśnienie 1017 hPa
Widzialność: 3000 m
Zachmurzenie całkowite na wysokości 500 ft
słaby deszcz, zamglenie

METAR: LZSL 122015Z VRB02KT 3000 -RA BR OVC005 11/11 Q1017

czas: 03:00 (01:00 UTC)

Prognoza

Raport powstał 5 godziny i 30 minut temu, godzina 19:30 UTC
Prognoza ważna od 12 godzina 21 UTC do 13 godzina 06 UTC
Wiatr 6 kt od północ
Widzialność 10 km lub więcej
Przerywane chmury na wysokości 4500 ft
Stopniowe zmiany
od 12 godzina 23 UTC do 13 godzina 01 UTC
Wiatr 3 kt z kierunków zmiennych
Widzialność: 8000 m
Zachmurzenie całkowite na wysokości 1500 ft
słaby deszcz

TAF: LZSL 121930Z 1221/1306 35006KT 9999 BKN045 BECMG 1223/1301 VRB03KT 8000 -RA OVC015

Obserwacja i prognoza pogody dla ponad 4000 lotnisk (raport METAR i TAF).

Dostępne stacje oznaczono żółtymi i czerwonymi punktami na mapie.

Najedź kursorem aby zobaczyć nazwę stacji.

Kliknij aby zobaczyć obserwacje i prognozy pogody.

Aby zmienić mapę: kliknij na zielony przycisk z czarnym krzyżykiem, aby powiększyć; na zielony przycisk z myślnikiem, aby pomniejszyć; na zielone strzałki, aby przejść do map sąsiednich.


METAR-TAF: